createdAt,value
2019-04-25T00:00:51.422Z,79.10
2019-04-25T00:03:29.404Z,79.30
2019-04-25T00:05:59.920Z,79.50
2019-04-25T00:08:31.189Z,79.70
2019-04-25T00:11:02.469Z,79.70
2019-04-25T00:13:33.109Z,79.80
2019-04-25T00:16:03.618Z,80.00
2019-04-25T00:18:34.080Z,80.20
2019-04-25T00:21:06.227Z,80.50
2019-04-25T00:23:39.364Z,80.60
2019-04-25T00:26:15.341Z,80.70
2019-04-25T00:28:46.680Z,80.90
2019-04-25T00:31:18.236Z,81.10
2019-04-25T00:33:49.491Z,81.40
2019-04-25T00:36:21.450Z,81.60
2019-04-25T00:38:53.239Z,81.60
2019-04-25T00:41:24.035Z,81.60
2019-04-25T00:43:54.501Z,81.80
2019-04-25T00:46:25.011Z,82.00
2019-04-25T00:48:56.473Z,82.10
2019-04-25T00:51:27.062Z,82.20
2019-04-25T00:53:57.457Z,82.40
2019-04-25T00:56:27.889Z,82.40
2019-04-25T00:59:15.860Z,82.50
2019-04-25T01:01:54.111Z,82.50
2019-04-25T01:04:26.098Z,82.60
2019-04-25T01:06:56.607Z,82.80
2019-04-25T01:09:28.551Z,83.00
2019-04-25T01:11:59.103Z,83.00
2019-04-25T01:14:29.542Z,83.00
2019-04-25T01:17:01.681Z,83.00
2019-04-25T01:19:32.221Z,83.10
2019-04-25T01:22:03.827Z,83.20
2019-04-25T01:24:34.320Z,83.50
2019-04-25T01:27:05.398Z,83.40
2019-04-25T01:29:35.953Z,83.50
2019-04-25T01:32:07.992Z,83.60
2019-04-25T01:34:44.283Z,83.80
2019-04-25T01:37:19.495Z,83.90
2019-04-25T01:39:55.333Z,84.00
2019-04-25T01:42:31.268Z,84.00
2019-04-25T01:45:03.961Z,84.30
2019-04-25T01:47:35.288Z,84.60
2019-04-25T01:50:07.252Z,84.60
2019-04-25T01:52:37.777Z,84.50
2019-04-25T01:55:08.916Z,84.50
2019-04-25T01:57:39.315Z,84.80
2019-04-25T02:00:13.771Z,84.80
2019-04-25T02:02:43.910Z,84.90
2019-04-25T02:05:14.426Z,85.10
2019-04-25T02:07:44.898Z,85.30
2019-04-25T02:10:15.681Z,85.60
2019-04-25T02:12:47.727Z,85.90
2019-04-25T02:15:19.788Z,85.80
2019-04-25T02:17:50.936Z,86.00
2019-04-25T02:20:23.831Z,86.20
2019-04-25T02:22:55.279Z,86.30
2019-04-25T02:25:26.111Z,86.30
2019-04-25T02:27:59.951Z,86.30
2019-04-25T02:30:28.648Z,86.60
2019-04-25T02:33:02.763Z,86.70
2019-04-25T02:35:31.245Z,86.90
2019-04-25T02:38:04.605Z,87.20
2019-04-25T02:40:34.031Z,87.20
2019-04-25T02:43:08.031Z,87.30
2019-04-25T02:45:38.332Z,87.50
2019-04-25T02:48:15.796Z,87.60
2019-04-25T02:50:56.410Z,87.90
2019-04-25T02:53:36.937Z,88.00
2019-04-25T02:56:26.105Z,88.30
2019-04-25T02:58:39.434Z,88.60
2019-04-25T03:01:19.681Z,88.80
2019-04-25T03:03:44.968Z,89.20
2019-04-25T03:06:15.627Z,89.60
2019-04-25T03:08:46.133Z,90.00
2019-04-25T03:11:16.537Z,90.20
2019-04-25T03:13:47.032Z,90.40
2019-04-25T03:16:17.434Z,90.50
2019-04-25T03:18:49.507Z,90.60
2019-04-25T03:21:27.570Z,90.70
2019-04-25T03:23:58.624Z,90.80
2019-04-25T03:26:39.742Z,91.00
2019-04-25T03:29:03.536Z,91.10
2019-04-25T03:31:34.974Z,91.10
2019-04-25T03:34:10.215Z,91.40
2019-04-25T03:36:38.014Z,91.50
2019-04-25T03:39:08.912Z,91.70
2019-04-25T03:41:39.303Z,91.90
2019-04-25T03:44:10.077Z,91.90
2019-04-25T03:46:40.520Z,92.00
2019-04-25T03:49:11.707Z,92.20
2019-04-25T03:51:43.816Z,92.30
2019-04-25T03:54:15.352Z,92.60
2019-04-25T03:56:53.664Z,93.00
2019-04-25T03:59:17.887Z,92.90
2019-04-25T04:01:48.281Z,92.50
2019-04-25T04:04:18.713Z,92.10
2019-04-25T04:06:49.107Z,91.80
2019-04-25T04:09:19.543Z,91.60
2019-04-25T04:11:49.942Z,91.40
2019-04-25T04:14:20.639Z,91.30
2019-04-25T04:17:11.010Z,91.10
2019-04-25T04:19:54.721Z,90.90
2019-04-25T04:22:36.750Z,90.70
2019-04-25T04:25:09.539Z,90.60
2019-04-25T04:27:39.985Z,90.30
2019-04-25T04:30:10.727Z,90.10
2019-04-25T04:32:41.119Z,89.60
2019-04-25T04:35:13.744Z,89.00
2019-04-25T04:37:43.791Z,88.00
2019-04-25T04:40:17.233Z,87.40
2019-04-25T04:42:47.363Z,86.70
2019-04-25T04:45:18.257Z,86.40
2019-04-25T04:47:48.680Z,86.60
2019-04-25T04:50:19.120Z,86.30
2019-04-25T04:52:49.515Z,86.50
2019-04-25T04:55:19.958Z,86.30
2019-04-25T04:57:50.360Z,86.50
2019-04-25T05:00:21.570Z,86.40
2019-04-25T05:02:53.603Z,86.60
2019-04-25T05:05:40.465Z,86.60
2019-04-25T05:08:13.002Z,86.00
2019-04-25T05:10:44.643Z,85.50
2019-04-25T05:13:16.651Z,85.00
2019-04-25T05:15:47.277Z,85.40
2019-04-25T05:18:32.947Z,85.20
2019-04-25T05:20:49.991Z,84.60
2019-04-25T05:23:20.974Z,84.50
2019-04-25T05:25:51.512Z,83.90
2019-04-25T05:28:24.560Z,83.90
2019-04-25T05:31:05.277Z,82.90
2019-04-25T05:33:35.720Z,82.50
2019-04-25T05:36:06.157Z,82.30
2019-04-25T05:38:36.622Z,81.70
2019-04-25T05:41:11.423Z,81.50
2019-04-25T05:43:43.492Z,81.10
2019-04-25T05:46:15.285Z,81.30
2019-04-25T05:48:45.852Z,80.70
2019-04-25T05:51:17.385Z,81.00
2019-04-25T05:53:47.932Z,80.90
2019-04-25T05:56:18.329Z,81.90
2019-04-25T05:58:48.760Z,81.40
2019-04-25T06:01:19.162Z,80.90
2019-04-25T06:03:49.599Z,80.40
2019-04-25T06:06:19.996Z,79.50
2019-04-25T06:08:57.610Z,79.20
2019-04-25T06:11:33.637Z,78.70
2019-04-25T06:14:05.832Z,79.40
2019-04-25T06:16:37.299Z,77.50
2019-04-25T06:19:14.180Z,76.70
2019-04-25T06:21:43.375Z,76.50
2019-04-25T06:24:25.789Z,76.90
2019-04-25T06:27:15.957Z,75.90
2019-04-25T06:29:57.672Z,75.80
2019-04-25T06:32:21.528Z,74.20
2019-04-25T06:34:52.003Z,73.60
2019-04-25T06:37:24.554Z,71.50
2019-04-25T06:39:54.602Z,70.50
2019-04-25T06:42:25.752Z,68.80
2019-04-25T06:44:59.041Z,67.30
2019-04-25T06:47:31.720Z,67.60
2019-04-25T06:50:02.166Z,67.30
2019-04-25T06:52:34.458Z,68.00
2019-04-25T06:55:06.707Z,66.70
2019-04-25T06:57:37.260Z,65.20
2019-04-25T07:00:14.049Z,61.70
2019-04-25T07:02:44.684Z,60.50
2019-04-25T07:05:26.557Z,60.80
2019-04-25T07:07:49.676Z,59.10
2019-04-25T07:10:20.192Z,57.50
2019-04-25T07:12:50.575Z,58.00
2019-04-25T07:15:21.365Z,58.00
2019-04-25T07:17:54.023Z,56.90
2019-04-25T07:20:27.018Z,53.70
2019-04-25T07:22:57.314Z,53.60
2019-04-25T07:25:30.260Z,51.70
2019-04-25T07:28:24.220Z,52.00
2019-04-25T07:31:09.210Z,52.80
2019-04-25T07:33:41.231Z,53.30
2019-04-25T07:36:11.698Z,52.40
2019-04-25T07:38:43.490Z,53.80
2019-04-25T07:41:15.880Z,52.00
2019-04-25T07:43:46.167Z,50.30
2019-04-25T07:46:16.610Z,49.00
2019-04-25T07:48:47.017Z,50.30
2019-04-25T07:51:17.513Z,48.90
2019-04-25T07:53:47.897Z,47.50
2019-04-25T07:56:18.327Z,48.20
2019-04-25T07:58:52.474Z,47.80
2019-04-25T08:01:21.024Z,48.40
2019-04-25T08:03:51.492Z,48.70
2019-04-25T08:06:22.622Z,49.30
2019-04-25T08:08:54.575Z,47.30
2019-04-25T08:11:25.062Z,46.70
2019-04-25T08:13:59.851Z,48.00
2019-04-25T08:16:35.606Z,48.40
2019-04-25T08:19:07.766Z,47.40
2019-04-25T08:21:38.435Z,46.80
2019-04-25T08:24:09.007Z,46.40
2019-04-25T08:26:39.782Z,46.00
2019-04-25T08:29:10.211Z,46.70
2019-04-25T08:31:40.603Z,46.50
2019-04-25T08:34:11.046Z,46.60
2019-04-25T08:36:41.539Z,47.40
2019-04-25T08:39:14.336Z,46.60
2019-04-25T08:41:45.752Z,44.80
2019-04-25T08:44:17.382Z,44.30
2019-04-25T08:46:48.780Z,44.10
2019-04-25T08:49:24.761Z,44.20
2019-04-25T08:51:56.836Z,44.10
2019-04-25T08:54:47.425Z,45.00
2019-04-25T08:57:21.779Z,43.40
2019-04-25T08:59:59.895Z,42.70
2019-04-25T09:02:38.819Z,42.90
2019-04-25T09:05:19.243Z,43.00
2019-04-25T09:07:49.707Z,42.70
2019-04-25T09:10:21.480Z,43.50
2019-04-25T09:12:53.573Z,42.50
2019-04-25T09:15:24.346Z,42.90
2019-04-25T09:17:54.941Z,41.00
2019-04-25T09:20:25.466Z,39.20
2019-04-25T09:22:55.857Z,39.20
2019-04-25T09:25:26.371Z,39.90
2019-04-25T09:27:56.909Z,39.20
2019-04-25T09:30:29.128Z,39.00
2019-04-25T09:33:01.057Z,38.30
2019-04-25T09:35:33.304Z,38.10
2019-04-25T09:38:04.991Z,38.70
2019-04-25T09:40:36.127Z,39.00
2019-04-25T09:43:06.615Z,39.50
2019-04-25T09:45:39.544Z,40.60
2019-04-25T09:48:13.130Z,41.10
2019-04-25T09:50:46.372Z,40.60
2019-04-25T09:53:23.192Z,40.90
2019-04-25T09:55:54.256Z,41.30
2019-04-25T09:58:38.435Z,40.50
2019-04-25T10:01:16.152Z,40.40
2019-04-25T10:03:47.350Z,39.50
2019-04-25T10:06:19.336Z,41.00
2019-04-25T10:08:49.767Z,39.10
2019-04-25T10:11:20.307Z,40.20
2019-04-25T10:14:01.239Z,38.70
2019-04-25T10:16:31.863Z,37.40
2019-04-25T10:19:03.422Z,37.10
2019-04-25T10:21:34.329Z,38.70
2019-04-25T10:24:04.993Z,39.30
2019-04-25T10:26:35.649Z,40.10
2019-04-25T10:29:06.442Z,39.80
2019-04-25T10:31:36.917Z,39.00
2019-04-25T10:34:07.499Z,39.70
2019-04-25T10:36:39.899Z,39.70
2019-04-25T10:39:11.340Z,41.20
2019-04-25T10:41:44.506Z,39.20
2019-04-25T10:44:14.314Z,39.20
2019-04-25T10:46:46.928Z,38.70
2019-04-25T10:49:17.060Z,39.00
2019-04-25T10:51:48.001Z,37.90
2019-04-25T10:54:18.699Z,37.60
2019-04-25T10:56:49.108Z,36.50
2019-04-25T10:59:19.681Z,36.30
2019-04-25T11:01:50.081Z,38.60
2019-04-25T11:04:24.871Z,38.20
2019-04-25T11:06:55.799Z,40.00
2019-04-25T11:09:26.618Z,38.70
2019-04-25T11:11:57.010Z,39.00
2019-04-25T11:14:30.301Z,37.60
2019-04-25T11:17:01.658Z,37.50
2019-04-25T11:19:34.073Z,36.60
2019-04-25T11:22:07.075Z,36.40
2019-04-25T11:24:37.614Z,38.20
2019-04-25T11:27:08.007Z,36.60
2019-04-25T11:29:38.450Z,37.30
2019-04-25T11:32:09.130Z,37.60
2019-04-25T11:34:40.409Z,38.70
2019-04-25T11:37:10.948Z,37.30
2019-04-25T11:39:46.115Z,37.80
2019-04-25T11:42:16.650Z,37.80
2019-04-25T11:44:47.150Z,37.00
2019-04-25T11:47:18.268Z,37.90
2019-04-25T11:49:49.057Z,37.50
2019-04-25T11:52:27.444Z,37.70
2019-04-25T11:54:52.955Z,38.30
2019-04-25T11:57:24.112Z,39.30
2019-04-25T11:59:55.703Z,40.00
2019-04-25T12:02:26.942Z,39.50
2019-04-25T12:04:57.385Z,39.70
2019-04-25T12:07:27.908Z,38.20
2019-04-25T12:09:58.300Z,38.10
2019-04-25T12:12:29.009Z,38.30
2019-04-25T12:14:59.862Z,38.90
2019-04-25T12:17:30.282Z,38.70
2019-04-25T12:20:00.746Z,38.60
2019-04-25T12:22:31.250Z,40.10
2019-04-25T12:25:01.650Z,40.30
2019-04-25T12:27:32.729Z,39.10
2019-04-25T12:30:06.363Z,39.20
2019-04-25T12:32:36.958Z,39.80
2019-04-25T12:35:07.589Z,41.00
2019-04-25T12:37:38.034Z,40.80
2019-04-25T12:40:09.399Z,41.50
2019-04-25T12:42:39.981Z,41.10
2019-04-25T12:45:14.066Z,41.40
2019-04-25T12:47:46.422Z,41.70
2019-04-25T12:50:18.718Z,39.90
2019-04-25T12:52:49.322Z,39.60
2019-04-25T12:55:19.994Z,39.30
2019-04-25T12:57:51.384Z,39.60
2019-04-25T13:00:27.052Z,40.20
2019-04-25T13:02:57.617Z,38.30
2019-04-25T13:05:28.118Z,39.60
2019-04-25T13:07:59.931Z,38.00
2019-04-25T13:10:31.064Z,38.20
2019-04-25T13:13:01.733Z,37.60
2019-04-25T13:15:33.444Z,37.20
2019-04-25T13:18:04.098Z,37.30
2019-04-25T13:20:34.476Z,37.10
2019-04-25T13:23:05.843Z,37.10
2019-04-25T13:25:36.560Z,36.30
2019-04-25T13:28:25.072Z,36.80
2019-04-25T13:31:12.364Z,36.70
2019-04-25T13:33:43.340Z,36.80
2019-04-25T13:36:15.496Z,36.30
2019-04-25T13:38:46.901Z,36.50
2019-04-25T13:41:17.410Z,38.40
2019-04-25T13:43:47.804Z,37.30
2019-04-25T13:46:20.633Z,38.40
2019-04-25T13:48:50.399Z,38.50
2019-04-25T13:51:22.546Z,38.10
2019-04-25T13:53:54.578Z,37.10
2019-04-25T13:56:27.158Z,37.90
2019-04-25T13:58:57.363Z,37.10
2019-04-25T14:01:28.425Z,38.00
2019-04-25T14:03:58.825Z,37.60
2019-04-25T14:06:30.136Z,37.30
2019-04-25T14:09:00.767Z,37.40
2019-04-25T14:11:34.510Z,37.40
2019-04-25T14:14:05.461Z,36.40
2019-04-25T14:16:54.598Z,37.50
2019-04-25T14:19:29.821Z,37.00
2019-04-25T14:22:01.891Z,37.40
2019-04-25T14:24:32.745Z,37.60
2019-04-25T14:27:04.740Z,37.50
2019-04-25T14:29:35.345Z,37.80
2019-04-25T14:32:07.522Z,37.50
2019-04-25T14:34:37.926Z,37.70
2019-04-25T14:37:08.355Z,38.00
2019-04-25T14:39:39.025Z,38.20
2019-04-25T14:42:09.463Z,38.60
2019-04-25T14:44:39.925Z,38.60
2019-04-25T14:47:10.364Z,38.60
2019-04-25T14:49:40.753Z,39.40
2019-04-25T14:52:11.183Z,40.10
2019-04-25T14:54:43.216Z,40.00
2019-04-25T14:57:26.738Z,40.20
2019-04-25T15:00:01.202Z,40.90
2019-04-25T15:02:32.060Z,40.20
2019-04-25T15:05:04.291Z,40.10
2019-04-25T15:07:35.759Z,40.30
2019-04-25T15:10:08.099Z,40.90
2019-04-25T15:12:38.565Z,40.80
2019-04-25T15:15:09.169Z,40.70
2019-04-25T15:17:46.279Z,40.20
2019-04-25T15:20:11.782Z,40.20
2019-04-25T15:22:42.208Z,39.90
2019-04-25T15:25:12.668Z,40.80
2019-04-25T15:27:43.196Z,42.00
2019-04-25T15:30:15.301Z,41.90
2019-04-25T15:32:45.760Z,41.50
2019-04-25T15:35:17.801Z,41.30
2019-04-25T15:37:49.921Z,41.80
2019-04-25T15:40:36.894Z,41.20
2019-04-25T15:43:11.379Z,40.50
2019-04-25T15:45:49.400Z,40.70
2019-04-25T15:48:19.900Z,39.80
2019-04-25T15:50:50.773Z,40.40
2019-04-25T15:53:21.210Z,40.60
2019-04-25T15:55:51.767Z,40.70
2019-04-25T15:58:22.721Z,40.70
2019-04-25T16:00:53.167Z,43.00
2019-04-25T16:03:23.611Z,41.60
2019-04-25T16:05:54.008Z,41.30
2019-04-25T16:08:24.749Z,41.70
2019-04-25T16:10:55.423Z,42.20
2019-04-25T16:13:26.939Z,42.00
2019-04-25T16:15:57.407Z,42.00
2019-04-25T16:18:28.458Z,42.60
2019-04-25T16:20:59.268Z,42.60
2019-04-25T16:23:30.243Z,42.90
2019-04-25T16:26:00.716Z,42.80
2019-04-25T16:28:31.740Z,43.20
2019-04-25T16:31:04.374Z,43.30
2019-04-25T16:33:34.464Z,43.30
2019-04-25T16:36:04.972Z,43.70
2019-04-25T16:38:35.406Z,43.80
2019-04-25T16:41:06.021Z,44.00
2019-04-25T16:43:38.936Z,44.70
2019-04-25T16:46:09.546Z,44.50
2019-04-25T16:48:39.955Z,45.10
2019-04-25T16:51:10.524Z,45.20
2019-04-25T16:53:40.907Z,45.10
2019-04-25T16:56:12.679Z,45.50
2019-04-25T16:58:43.133Z,45.70
2019-04-25T17:01:14.310Z,46.00
2019-04-25T17:03:44.919Z,46.30
2019-04-25T17:06:15.688Z,46.60
2019-04-25T17:08:46.348Z,46.80
2019-04-25T17:11:16.952Z,47.30
2019-04-25T17:13:51.669Z,47.70
2019-04-25T17:16:23.808Z,48.00
2019-04-25T17:19:01.863Z,48.40
2019-04-25T17:21:33.432Z,48.70
2019-04-25T17:24:04.342Z,49.90
2019-04-25T17:26:34.870Z,50.20
2019-04-25T17:29:06.965Z,51.00
2019-04-25T17:31:42.643Z,54.80
2019-04-25T17:34:20.746Z,56.00
2019-04-25T17:36:53.790Z,57.90
2019-04-25T17:39:28.671Z,58.40
2019-04-25T17:42:01.340Z,60.00
2019-04-25T17:44:31.644Z,64.80
2019-04-25T17:47:06.459Z,69.90
2019-04-25T17:49:35.194Z,67.50
2019-04-25T17:52:05.764Z,66.20
2019-04-25T17:54:36.631Z,66.60
2019-04-25T17:57:07.262Z,67.40
2019-04-25T17:59:37.684Z,68.00
2019-04-25T18:33:20.693Z,76.10
2019-04-25T18:36:04.679Z,77.10
2019-04-25T18:38:48.316Z,77.50
2019-04-25T18:41:20.369Z,79.30
2019-04-25T18:43:52.519Z,78.50
2019-04-25T18:46:24.565Z,79.50
2019-04-25T18:48:55.000Z,78.70
2019-04-25T18:51:25.434Z,79.20
2019-04-25T18:53:57.803Z,79.70
2019-04-25T18:56:32.650Z,82.20
2019-04-25T18:59:20.885Z,83.20
2019-04-25T19:01:55.895Z,83.20
2019-04-25T19:04:38.202Z,83.10
2019-04-25T19:07:08.740Z,82.30
2019-04-25T19:09:39.383Z,82.00
2019-04-25T19:12:09.929Z,85.90
2019-04-25T19:14:41.331Z,85.70
2019-04-25T19:17:11.957Z,85.70
2019-04-25T19:19:43.499Z,85.60
2019-04-25T19:22:14.048Z,86.10
2019-04-25T19:24:46.079Z,86.40
2019-04-25T19:27:23.603Z,86.60
2019-04-25T19:29:52.122Z,85.70
2019-04-25T19:32:21.773Z,86.80
2019-04-25T19:34:52.170Z,87.10
2019-04-25T19:37:22.612Z,86.90
2019-04-25T19:40:09.527Z,87.00
2019-04-25T19:42:47.097Z,88.40
2019-04-25T19:45:17.637Z,89.30
2019-04-25T19:47:49.210Z,89.20
2019-04-25T19:50:20.789Z,90.50
2019-04-25T19:52:52.064Z,90.30
2019-04-25T19:55:22.598Z,90.50
2019-04-25T19:57:53.113Z,90.10
2019-04-25T20:00:23.578Z,90.10
2019-04-25T20:02:55.667Z,90.30
2019-04-25T20:05:27.837Z,90.60
2019-04-25T20:08:02.603Z,90.80
2019-04-25T20:10:37.412Z,91.10
2019-04-25T20:13:07.844Z,91.30
2019-04-25T20:15:38.311Z,90.80
2019-04-25T20:18:08.750Z,90.80
2019-04-25T20:20:39.146Z,91.20
2019-04-25T20:23:09.581Z,91.40
2019-04-25T20:25:39.972Z,91.50
2019-04-25T20:28:10.474Z,91.40
2019-04-25T20:30:40.988Z,91.20
2019-04-25T20:33:11.436Z,91.40
2019-04-25T20:35:43.402Z,91.50
2019-04-25T20:38:13.867Z,91.50
2019-04-25T20:40:45.165Z,92.00
2019-04-25T20:43:16.410Z,91.80
2019-04-25T20:45:47.360Z,91.90
2019-04-25T20:48:18.657Z,92.00
2019-04-25T20:50:49.119Z,92.00
2019-04-25T20:53:19.652Z,92.10
2019-04-25T20:55:50.827Z,92.40
2019-04-25T20:58:23.254Z,92.80
2019-04-25T21:00:55.934Z,92.90
2019-04-25T21:03:26.564Z,92.80
2019-04-25T21:05:59.225Z,92.90
2019-04-25T21:08:29.893Z,92.90
2019-04-25T21:11:00.337Z,93.20
2019-04-25T21:13:44.393Z,93.30
2019-04-25T21:16:32.234Z,93.40
2019-04-25T21:19:07.032Z,93.40
2019-04-25T21:21:37.633Z,93.00
2019-04-25T21:24:08.029Z,93.10
2019-04-25T21:26:38.470Z,93.10
2019-04-25T21:29:10.048Z,93.50
2019-04-25T21:31:40.928Z,93.30
2019-04-25T21:34:11.895Z,93.30
2019-04-25T21:36:42.834Z,93.60
2019-04-25T21:39:21.148Z,93.50
2019-04-25T21:41:53.466Z,93.50
2019-04-25T21:44:24.190Z,93.50
2019-04-25T21:46:54.716Z,94.00
2019-04-25T21:49:25.455Z,93.60
2019-04-25T21:51:56.990Z,93.80
2019-04-25T21:54:27.446Z,94.10
2019-04-25T21:56:59.545Z,94.50
2019-04-25T21:59:30.271Z,94.20
2019-04-25T22:02:00.776Z,94.20
2019-04-25T22:04:38.693Z,94.30
2019-04-25T22:07:05.093Z,94.40
2019-04-25T22:09:35.966Z,94.60
2019-04-25T22:12:11.672Z,94.50
2019-04-25T22:14:42.071Z,94.50
2019-04-25T22:17:12.517Z,94.50
2019-04-25T22:19:43.356Z,94.80
2019-04-25T22:22:14.172Z,94.90
2019-04-25T22:24:44.685Z,95.20
2019-04-25T22:27:17.721Z,95.30
2019-04-25T22:29:49.803Z,95.30
2019-04-25T22:32:21.872Z,95.20
2019-04-25T22:34:58.288Z,95.10
2019-04-25T22:37:29.122Z,95.50
2019-04-25T22:39:59.993Z,94.90
2019-04-25T22:42:30.424Z,95.10
2019-04-25T22:45:01.752Z,95.00
2019-04-25T22:47:33.833Z,95.10
2019-04-25T22:50:06.476Z,95.20
2019-04-25T22:52:37.301Z,95.10
2019-04-25T22:55:09.213Z,95.30
2019-04-25T22:57:39.882Z,95.40
2019-04-25T23:00:12.464Z,95.40
2019-04-25T23:02:52.135Z,95.30
2019-04-25T23:05:24.579Z,95.50
2019-04-25T23:07:54.973Z,95.60
2019-04-25T23:10:26.008Z,95.60
2019-04-25T23:12:56.406Z,95.50
2019-04-25T23:15:26.835Z,95.50
2019-04-25T23:17:57.515Z,95.60
2019-04-25T23:20:28.135Z,95.70
2019-04-25T23:22:59.094Z,95.70
2019-04-25T23:25:31.249Z,95.90
2019-04-25T23:28:06.399Z,96.20
2019-04-25T23:30:39.125Z,96.60
2019-04-25T23:33:10.538Z,96.40
2019-04-25T23:35:42.318Z,96.60
2019-04-25T23:38:14.729Z,96.80
2019-04-25T23:40:44.965Z,96.90
2019-04-25T23:43:15.858Z,96.80
2019-04-25T23:45:46.353Z,96.50
2019-04-25T23:48:17.040Z,96.50
2019-04-25T23:50:47.545Z,96.60
2019-04-25T23:53:17.943Z,96.50
2019-04-25T23:55:48.381Z,96.50
2019-04-25T23:58:18.799Z,96.60
